Terminal Aerodrome Forecast
Issued by NWS

Home | Current Version | Previous Version | Text Only | Print | Product List | Glossary On
Versions: 1 2 3 4 5 6 7 8 9 10 11 12
000
FTUS43 KDTX 271120
TAFDET
TAF
KDET 271120Z 2712/2812 24004KT P6SM SKC
     FM271700 23007KT P6SM SCT080
     FM280000 21005KT P6SM SCT150
     FM280500 03006KT P6SM SCT060 BKN150=

USA.gov is the U.S. government's official web portal to all federal, state and local government web resources and services.